sensor_id;sensor_type;location;lat;lon;timestamp;temperature;humidity
35305;DHT22;26433;48.034;-1.764;2023-11-19T00:02:31;17.10;99.90
35305;DHT22;26433;48.034;-1.764;2023-11-19T00:07:36;16.50;99.90
35305;DHT22;26433;48.034;-1.764;2023-11-19T00:12:44;16.40;99.90
35305;DHT22;26433;48.034;-1.764;2023-11-19T00:17:48;16.40;99.90
35305;DHT22;26433;48.034;-1.764;2023-11-19T00:22:53;16.30;99.90
35305;DHT22;26433;48.034;-1.764;2023-11-19T00:27:57;16.30;99.90
35305;DHT22;26433;48.034;-1.764;2023-11-19T00:33:01;16.20;99.90
35305;DHT22;26433;48.034;-1.764;2023-11-19T00:38:06;16.20;99.90
35305;DHT22;26433;48.034;-1.764;2023-11-19T00:43:10;16.20;99.90
35305;DHT22;26433;48.034;-1.764;2023-11-19T00:48:13;16.10;99.90
35305;DHT22;26433;48.034;-1.764;2023-11-19T00:53:18;16.10;99.90
35305;DHT22;26433;48.034;-1.764;2023-11-19T00:58:22;16.00;99.90
35305;DHT22;26433;48.034;-1.764;2023-11-19T01:03:26;16.00;99.90
35305;DHT22;26433;48.034;-1.764;2023-11-19T01:08:30;15.90;99.90
35305;DHT22;26433;48.034;-1.764;2023-11-19T01:13:34;15.90;99.90
35305;DHT22;26433;48.034;-1.764;2023-11-19T01:18:38;15.90;99.90
35305;DHT22;26433;48.034;-1.764;2023-11-19T01:23:42;15.80;99.90
35305;DHT22;26433;48.034;-1.764;2023-11-19T01:28:46;15.80;99.90
35305;DHT22;26433;48.034;-1.764;2023-11-19T01:33:53;15.80;99.90
35305;DHT22;26433;48.034;-1.764;2023-11-19T01:38:58;15.80;99.90
35305;DHT22;26433;48.034;-1.764;2023-11-19T01:44:02;15.70;99.90
35305;DHT22;26433;48.034;-1.764;2023-11-19T01:49:06;15.70;99.90
35305;DHT22;26433;48.034;-1.764;2023-11-19T01:54:12;15.60;99.90
35305;DHT22;26433;48.034;-1.764;2023-11-19T01:59:17;15.60;99.90
35305;DHT22;26433;48.034;-1.764;2023-11-19T02:04:22;15.60;99.90
35305;DHT22;26433;48.034;-1.764;2023-11-19T02:09:28;15.50;99.90
35305;DHT22;26433;48.034;-1.764;2023-11-19T02:14:32;15.50;99.90
35305;DHT22;26433;48.034;-1.764;2023-11-19T02:19:35;15.40;99.90
35305;DHT22;26433;48.034;-1.764;2023-11-19T02:24:41;15.40;99.90
35305;DHT22;26433;48.034;-1.764;2023-11-19T02:29:46;15.40;99.90
35305;DHT22;26433;48.034;-1.764;2023-11-19T02:34:50;15.30;99.90
35305;DHT22;26433;48.034;-1.764;2023-11-19T02:39:55;15.30;99.90
35305;DHT22;26433;48.034;-1.764;2023-11-19T02:45:00;15.30;99.90
35305;DHT22;26433;48.034;-1.764;2023-11-19T02:50:04;15.30;99.90
35305;DHT22;26433;48.034;-1.764;2023-11-19T02:55:10;15.20;99.90
35305;DHT22;26433;48.034;-1.764;2023-11-19T03:00:17;15.20;99.90
35305;DHT22;26433;48.034;-1.764;2023-11-19T03:05:21;15.10;99.90
35305;DHT22;26433;48.034;-1.764;2023-11-19T03:10:24;15.10;99.90
35305;DHT22;26433;48.034;-1.764;2023-11-19T03:15:29;15.00;99.90
35305;DHT22;26433;48.034;-1.764;2023-11-19T03:20:33;15.00;99.90
35305;DHT22;26433;48.034;-1.764;2023-11-19T03:25:37;14.90;99.90
35305;DHT22;26433;48.034;-1.764;2023-11-19T03:30:42;14.80;99.90
35305;DHT22;26433;48.034;-1.764;2023-11-19T03:35:45;14.80;99.90
35305;DHT22;26433;48.034;-1.764;2023-11-19T03:40:49;14.80;99.90
35305;DHT22;26433;48.034;-1.764;2023-11-19T03:45:53;14.70;99.90
35305;DHT22;26433;48.034;-1.764;2023-11-19T03:50:57;14.70;99.90
35305;DHT22;26433;48.034;-1.764;2023-11-19T03:56:01;14.60;99.90
35305;DHT22;26433;48.034;-1.764;2023-11-19T04:01:11;14.50;99.90
35305;DHT22;26433;48.034;-1.764;2023-11-19T04:06:15;14.50;99.90
35305;DHT22;26433;48.034;-1.764;2023-11-19T04:11:18;14.50;99.90
35305;DHT22;26433;48.034;-1.764;2023-11-19T04:16:27;14.50;99.90
35305;DHT22;26433;48.034;-1.764;2023-11-19T04:21:31;14.50;99.90
35305;DHT22;26433;48.034;-1.764;2023-11-19T04:26:35;14.40;99.90
35305;DHT22;26433;48.034;-1.764;2023-11-19T04:31:40;14.40;99.90
35305;DHT22;26433;48.034;-1.764;2023-11-19T04:36:43;14.40;99.90
35305;DHT22;26433;48.034;-1.764;2023-11-19T04:41:47;14.40;99.90
35305;DHT22;26433;48.034;-1.764;2023-11-19T04:46:52;14.40;99.90
35305;DHT22;26433;48.034;-1.764;2023-11-19T04:51:56;14.40;99.90
35305;DHT22;26433;48.034;-1.764;2023-11-19T04:56:59;14.30;99.90
35305;DHT22;26433;48.034;-1.764;2023-11-19T05:02:04;14.30;99.90
35305;DHT22;26433;48.034;-1.764;2023-11-19T05:07:08;14.30;99.90
35305;DHT22;26433;48.034;-1.764;2023-11-19T05:12:11;14.30;99.90
35305;DHT22;26433;48.034;-1.764;2023-11-19T05:17:16;14.30;99.90
35305;DHT22;26433;48.034;-1.764;2023-11-19T05:22:21;14.20;99.90
35305;DHT22;26433;48.034;-1.764;2023-11-19T05:27:25;14.20;99.90
35305;DHT22;26433;48.034;-1.764;2023-11-19T05:32:30;14.20;99.90
35305;DHT22;26433;48.034;-1.764;2023-11-19T05:37:34;14.10;99.90
35305;DHT22;26433;48.034;-1.764;2023-11-19T05:42:37;14.10;99.90
35305;DHT22;26433;48.034;-1.764;2023-11-19T05:47:42;14.10;99.90
35305;DHT22;26433;48.034;-1.764;2023-11-19T05:52:46;14.00;99.90
35305;DHT22;26433;48.034;-1.764;2023-11-19T05:57:49;14.00;99.90
35305;DHT22;26433;48.034;-1.764;2023-11-19T06:02:55;14.00;99.90
35305;DHT22;26433;48.034;-1.764;2023-11-19T06:07:59;14.00;99.90
35305;DHT22;26433;48.034;-1.764;2023-11-19T06:13:02;13.90;99.90
35305;DHT22;26433;48.034;-1.764;2023-11-19T06:18:09;13.90;99.90
35305;DHT22;26433;48.034;-1.764;2023-11-19T06:23:14;13.90;99.90
35305;DHT22;26433;48.034;-1.764;2023-11-19T06:28:17;13.90;99.90
35305;DHT22;26433;48.034;-1.764;2023-11-19T06:33:22;14.00;99.90
35305;DHT22;26433;48.034;-1.764;2023-11-19T06:38:26;14.00;99.90
35305;DHT22;26433;48.034;-1.764;2023-11-19T06:43:29;14.00;99.90
35305;DHT22;26433;48.034;-1.764;2023-11-19T06:48:40;14.00;99.90
35305;DHT22;26433;48.034;-1.764;2023-11-19T06:53:45;14.00;99.90
35305;DHT22;26433;48.034;-1.764;2023-11-19T06:58:48;13.90;99.90
35305;DHT22;26433;48.034;-1.764;2023-11-19T07:03:53;13.90;99.90
35305;DHT22;26433;48.034;-1.764;2023-11-19T07:09:00;13.80;99.90
35305;DHT22;26433;48.034;-1.764;2023-11-19T07:14:11;13.80;99.90
35305;DHT22;26433;48.034;-1.764;2023-11-19T07:19:16;13.80;99.90
35305;DHT22;26433;48.034;-1.764;2023-11-19T07:24:19;13.80;99.90
35305;DHT22;26433;48.034;-1.764;2023-11-19T07:29:23;13.80;99.90
35305;DHT22;26433;48.034;-1.764;2023-11-19T07:34:31;13.70;99.90
35305;DHT22;26433;48.034;-1.764;2023-11-19T07:39:34;13.70;99.90
35305;DHT22;26433;48.034;-1.764;2023-11-19T07:44:40;13.70;99.90
35305;DHT22;26433;48.034;-1.764;2023-11-19T07:49:45;13.70;99.90
35305;DHT22;26433;48.034;-1.764;2023-11-19T07:54:48;13.70;99.90
35305;DHT22;26433;48.034;-1.764;2023-11-19T08:04:57;13.70;99.90
35305;DHT22;26433;48.034;-1.764;2023-11-19T08:10:00;13.80;99.90
35305;DHT22;26433;48.034;-1.764;2023-11-19T08:15:05;13.80;99.90
35305;DHT22;26433;48.034;-1.764;2023-11-19T08:20:11;13.90;99.90
35305;DHT22;26433;48.034;-1.764;2023-11-19T08:25:14;14.00;99.90
35305;DHT22;26433;48.034;-1.764;2023-11-19T08:30:18;14.00;99.90
35305;DHT22;26433;48.034;-1.764;2023-11-19T08:35:23;14.00;99.90
35305;DHT22;26433;48.034;-1.764;2023-11-19T08:40:27;14.10;99.90
35305;DHT22;26433;48.034;-1.764;2023-11-19T08:45:31;14.20;99.90
35305;DHT22;26433;48.034;-1.764;2023-11-19T08:50:36;14.20;99.90
35305;DHT22;26433;48.034;-1.764;2023-11-19T08:55:39;14.30;99.90
35305;DHT22;26433;48.034;-1.764;2023-11-19T09:00:43;14.40;99.90
35305;DHT22;26433;48.034;-1.764;2023-11-19T09:05:48;14.50;99.90
35305;DHT22;26433;48.034;-1.764;2023-11-19T09:10:51;14.60;99.90
35305;DHT22;26433;48.034;-1.764;2023-11-19T09:21:07;14.90;99.90
35305;DHT22;26433;48.034;-1.764;2023-11-19T09:26:11;14.90;99.90
35305;DHT22;26433;48.034;-1.764;2023-11-19T09:36:19;15.00;99.90
35305;DHT22;26433;48.034;-1.764;2023-11-19T09:41:23;15.10;99.90
35305;DHT22;26433;48.034;-1.764;2023-11-19T09:46:29;15.30;99.90
35305;DHT22;26433;48.034;-1.764;2023-11-19T09:51:35;15.30;99.90
35305;DHT22;26433;48.034;-1.764;2023-11-19T09:56:39;15.40;99.90
35305;DHT22;26433;48.034;-1.764;2023-11-19T10:06:48;15.70;99.90
35305;DHT22;26433;48.034;-1.764;2023-11-19T10:11:52;16.00;99.90
35305;DHT22;26433;48.034;-1.764;2023-11-19T10:22:04;16.60;99.90
35305;DHT22;26433;48.034;-1.764;2023-11-19T10:27:08;16.80;99.90
35305;DHT22;26433;48.034;-1.764;2023-11-19T10:32:12;16.90;99.90
35305;DHT22;26433;48.034;-1.764;2023-11-19T10:37:29;17.10;99.90
35305;DHT22;26433;48.034;-1.764;2023-11-19T10:42:34;17.40;99.90
35305;DHT22;26433;48.034;-1.764;2023-11-19T10:47:39;17.70;99.90
35305;DHT22;26433;48.034;-1.764;2023-11-19T10:52:47;17.90;99.90
35305;DHT22;26433;48.034;-1.764;2023-11-19T10:57:52;18.20;99.90
35305;DHT22;26433;48.034;-1.764;2023-11-19T11:03:00;18.20;99.90
35305;DHT22;26433;48.034;-1.764;2023-11-19T11:08:06;18.20;99.90
35305;DHT22;26433;48.034;-1.764;2023-11-19T11:13:10;18.30;99.90
35305;DHT22;26433;48.034;-1.764;2023-11-19T11:18:14;18.50;99.90
35305;DHT22;26433;48.034;-1.764;2023-11-19T11:23:37;18.40;99.90
35305;DHT22;26433;48.034;-1.764;2023-11-19T11:28:54;18.20;99.90
35305;DHT22;26433;48.034;-1.764;2023-11-19T11:34:13;18.10;99.90
35305;DHT22;26433;48.034;-1.764;2023-11-19T11:39:22;18.20;99.90
35305;DHT22;26433;48.034;-1.764;2023-11-19T11:45:00;18.10;99.90
35305;DHT22;26433;48.034;-1.764;2023-11-19T11:50:08;18.20;99.90
35305;DHT22;26433;48.034;-1.764;2023-11-19T11:55:16;18.60;99.90
35305;DHT22;26433;48.034;-1.764;2023-11-19T12:00:22;19.10;99.90
35305;DHT22;26433;48.034;-1.764;2023-11-19T12:05:30;19.30;98.60
35305;DHT22;26433;48.034;-1.764;2023-11-19T12:10:43;19.30;96.40
35305;DHT22;26433;48.034;-1.764;2023-11-19T12:16:09;19.20;94.30
35305;DHT22;26433;48.034;-1.764;2023-11-19T12:21:28;19.30;94.90
35305;DHT22;26433;48.034;-1.764;2023-11-19T12:26:37;19.50;93.60
35305;DHT22;26433;48.034;-1.764;2023-11-19T12:31:44;19.50;92.90
35305;DHT22;26433;48.034;-1.764;2023-11-19T12:36:48;19.40;93.60
35305;DHT22;26433;48.034;-1.764;2023-11-19T12:41:53;19.80;91.90
35305;DHT22;26433;48.034;-1.764;2023-11-19T12:47:01;19.80;92.20
35305;DHT22;26433;48.034;-1.764;2023-11-19T12:52:12;19.90;91.60
35305;DHT22;26433;48.034;-1.764;2023-11-19T12:57:18;20.00;91.30
35305;DHT22;26433;48.034;-1.764;2023-11-19T13:02:22;19.90;90.90
35305;DHT22;26433;48.034;-1.764;2023-11-19T13:07:26;19.50;91.20
35305;DHT22;26433;48.034;-1.764;2023-11-19T13:12:31;18.90;91.80
35305;DHT22;26433;48.034;-1.764;2023-11-19T13:17:34;18.50;93.00
35305;DHT22;26433;48.034;-1.764;2023-11-19T13:27:46;18.40;91.70
35305;DHT22;26433;48.034;-1.764;2023-11-19T13:32:49;18.30;91.90
35305;DHT22;26433;48.034;-1.764;2023-11-19T13:37:53;18.30;91.40
35305;DHT22;26433;48.034;-1.764;2023-11-19T13:42:58;18.20;91.40
35305;DHT22;26433;48.034;-1.764;2023-11-19T13:48:01;18.10;91.80
35305;DHT22;26433;48.034;-1.764;2023-11-19T13:53:05;18.10;92.10
35305;DHT22;26433;48.034;-1.764;2023-11-19T13:58:10;18.30;90.00
35305;DHT22;26433;48.034;-1.764;2023-11-19T14:03:13;18.50;88.00
35305;DHT22;26433;48.034;-1.764;2023-11-19T14:13:28;18.60;83.20
35305;DHT22;26433;48.034;-1.764;2023-11-19T14:18:33;18.50;85.10
35305;DHT22;26433;48.034;-1.764;2023-11-19T14:23:37;18.40;85.10
35305;DHT22;26433;48.034;-1.764;2023-11-19T14:28:42;18.30;85.00
35305;DHT22;26433;48.034;-1.764;2023-11-19T14:33:48;18.10;84.70
35305;DHT22;26433;48.034;-1.764;2023-11-19T14:43:57;17.90;86.40
35305;DHT22;26433;48.034;-1.764;2023-11-19T14:49:00;18.00;85.40
35305;DHT22;26433;48.034;-1.764;2023-11-19T14:59:09;17.70;85.30
35305;DHT22;26433;48.034;-1.764;2023-11-19T15:04:12;17.60;86.80
35305;DHT22;26433;48.034;-1.764;2023-11-19T15:14:21;17.50;86.10
35305;DHT22;26433;48.034;-1.764;2023-11-19T15:19:25;17.50;86.50
35305;DHT22;26433;48.034;-1.764;2023-11-19T15:29:33;16.90;84.60
35305;DHT22;26433;48.034;-1.764;2023-11-19T15:34:37;17.20;91.90
35305;DHT22;26433;48.034;-1.764;2023-11-19T15:44:47;16.70;85.20
35305;DHT22;26433;48.034;-1.764;2023-11-19T16:00:00;16.00;86.20
35305;DHT22;26433;48.034;-1.764;2023-11-19T16:15:27;15.90;88.70
35305;DHT22;26433;48.034;-1.764;2023-11-19T16:30:42;15.60;90.60
35305;DHT22;26433;48.034;-1.764;2023-11-19T16:45:55;15.50;91.40
35305;DHT22;26433;48.034;-1.764;2023-11-19T17:01:12;15.20;92.30
35305;DHT22;26433;48.034;-1.764;2023-11-19T17:16:26;15.00;92.90
35305;DHT22;26433;48.034;-1.764;2023-11-19T17:31:41;14.90;93.30
35305;DHT22;26433;48.034;-1.764;2023-11-19T17:46:55;14.60;94.10
35305;DHT22;26433;48.034;-1.764;2023-11-19T18:02:08;14.50;94.40
35305;DHT22;26433;48.034;-1.764;2023-11-19T18:17:20;14.40;94.40
35305;DHT22;26433;48.034;-1.764;2023-11-19T18:32:33;14.60;99.80
35305;DHT22;26433;48.034;-1.764;2023-11-19T18:37:37;14.60;99.90
35305;DHT22;26433;48.034;-1.764;2023-11-19T18:47:45;14.10;95.70
35305;DHT22;26433;48.034;-1.764;2023-11-19T19:02:59;13.90;96.60
35305;DHT22;26433;48.034;-1.764;2023-11-19T19:18:14;13.70;97.20
35305;DHT22;26433;48.034;-1.764;2023-11-19T19:33:28;13.50;98.00
35305;DHT22;26433;48.034;-1.764;2023-11-19T19:38:32;13.80;99.90
35305;DHT22;26433;48.034;-1.764;2023-11-19T19:48:41;13.40;98.60
35305;DHT22;26433;48.034;-1.764;2023-11-19T20:03:53;13.30;99.20
35305;DHT22;26433;48.034;-1.764;2023-11-19T20:19:07;13.30;99.80
35305;DHT22;26433;48.034;-1.764;2023-11-19T20:34:22;13.20;99.90
35305;DHT22;26433;48.034;-1.764;2023-11-19T20:49:36;13.00;99.90
35305;DHT22;26433;48.034;-1.764;2023-11-19T21:04:48;13.00;99.90
35305;DHT22;26433;48.034;-1.764;2023-11-19T21:20:03;12.80;99.90
35305;DHT22;26433;48.034;-1.764;2023-11-19T21:35:21;12.50;99.90
35305;DHT22;26433;48.034;-1.764;2023-11-19T21:50:47;12.60;99.90
35305;DHT22;26433;48.034;-1.764;2023-11-19T22:06:19;12.60;99.90
35305;DHT22;26433;48.034;-1.764;2023-11-19T22:21:35;12.70;99.90
35305;DHT22;26433;48.034;-1.764;2023-11-19T22:36:47;12.60;99.90
35305;DHT22;26433;48.034;-1.764;2023-11-19T22:52:04;12.60;99.90
35305;DHT22;26433;48.034;-1.764;2023-11-19T23:07:16;12.60;99.90
35305;DHT22;26433;48.034;-1.764;2023-11-19T23:22:30;12.60;99.90
35305;DHT22;26433;48.034;-1.764;2023-11-19T23:37:43;12.60;99.90
35305;DHT22;26433;48.034;-1.764;2023-11-19T23:42:46;12.60;99.90
35305;DHT22;26433;48.034;-1.764;2023-11-19T23:47:50;12.60;99.90
35305;DHT22;26433;48.034;-1.764;2023-11-19T23:52:55;12.60;99.90
